Terminal Aerodrome Forecast
Issued by NWS Charleston, WV

Current Version | Previous Version | Graphics & Text | Print | Product List | Glossary On
Versions: 1 2 3 4 5 6 7 8 9 10 11 12 13 14 15 16 17 18 19 20 21 22 23 24 25 26 27 28 29
000
FTUS41 KRLX 192300
TAFEKN
TAF
KEKN 192320Z 2000/2024 00000KT P6SM SCT250
     FM200400 00000KT 5SM BR SCT250
     FM200500 00000KT 2SM BR SCT001
     FM200600 00000KT 1/4SM FG VV001
     FM201300 00000KT 3SM BR BKN200
     FM201400 VRB03KT P6SM BKN250
     FM202000 24007KT P6SM BKN250=

USA.gov is the U.S. government's official web portal to all federal, state and local government web resources and services.